Ilminster, United Kingdom
Current Conditions -  °F | °C
As of 4:50 AM on Saturday 20 Dec 2014 (Local Time) from EGDY Reporting Station
Broken Clouds Broken Clouds  
Wind Chill: 40°   Ceiling: 4100
Heat Index: 46°   Visibility: 6mi
Dew Point: 39°   Wind: 16mph
Humidity: 76%   Direction: 270°W
Pressure: 30.3"   Gusts: NA
Location:  50.93°N, 2.91°W
Report Text: EGDY 200450Z AUTO 27014KT 9999 FEW031/// BKN041/// 08/04 Q1026
Loading
Personal Weather Stations






























Interactive Weather Map New forecast layout! Learn more

10-Day Weather Forecast

Advertisements
Track Severe Weather on mobile